Time;durP1;ratioP1;P1;durP2;ratioP2;P2;SDS_P1;SDS_P2;PMS_P1;PMS_P2;Temp;Humidity;BMP_temperature;BMP_pressure;BME280_temperature;BME280_humidity;BME280_pressure;Samples;Min_cycle;Max_cycle;Signal;HPM_P1;HPM_P2
2022/11/13 00:00:56;;;;;;;66.68;20.80;;;5.30;99.90;;;;;;5048711;28;20472;-83
2022/11/13 00:03:22;;;;;;;111.70;23.15;;;5.30;99.90;;;;;;5044093;28;20181;-84
2022/11/13 00:05:48;;;;;;;220.30;24.47;;;;;;;;;;5045426;28;20169;-84
2022/11/13 00:08:14;;;;;;;107.40;21.53;;;;;;;;;;5043211;28;20220;-84
2022/11/13 00:10:40;;;;;;;37.85;16.58;;;5.20;99.90;;;;;;5043966;28;20529;-82
2022/11/13 00:13:05;;;;;;;68.03;17.97;;;5.20;99.90;;;;;;5039308;28;20185;-83
2022/11/13 00:15:31;;;;;;;49.23;17.80;;;;;;;;;;5044009;28;20201;-84
2022/11/13 00:18:00;;;;;;;99.83;18.80;;;5.20;99.90;;;;;;5041406;28;20220;-84
2022/11/13 00:20:26;;;;;;;144.90;20.50;;;5.20;99.90;;;;;;5038600;28;20482;-84
2022/11/13 00:22:52;;;;;;;165.50;25.10;;;;;;;;;;5041435;28;20587;-85
2022/11/13 00:25:17;;;;;;;80.17;20.57;;;5.10;99.90;;;;;;5042014;28;20559;-85
2022/11/13 00:27:43;;;;;;;162.53;23.50;;;5.00;99.90;;;;;;5038177;28;20488;-84
2022/11/13 00:30:09;;;;;;;168.80;25.97;;;4.90;99.90;;;;;;5035274;28;20264;-86
2022/11/13 00:32:36;;;;;;;90.03;21.77;;;4.90;99.90;;;;;;5033335;28;20185;-85
2022/11/13 00:35:02;;;;;;;249.50;32.20;;;4.80;99.90;;;;;;5039364;28;20202;-86
2022/11/13 00:37:28;;;;;;;96.35;17.50;;;4.80;99.90;;;;;;5034773;28;21188;-87
2022/11/13 00:39:54;;;;;;;84.37;18.20;;;;;;;;;;5037836;28;20173;-87
2022/11/13 00:42:20;;;;;;;437.97;46.50;;;;;;;;;;5034264;28;20577;-87
2022/11/13 00:44:46;;;;;;;150.03;18.00;;;;;;;;;;5035546;28;20547;-88
2022/11/13 00:47:11;;;;;;;424.77;41.10;;;4.60;99.90;;;;;;5034100;28;20467;-87
2022/11/13 00:49:37;;;;;;;410.63;33.73;;;;;;;;;;5044817;28;20539;-88
2022/11/13 00:52:03;;;;;;;217.70;22.53;;;4.60;99.90;;;;;;5040736;28;20228;-88
2022/11/13 00:54:29;;;;;;;197.50;23.20;;;;;;;;;;5036694;28;20665;-88
2022/11/13 00:56:55;;;;;;;83.90;17.10;;;;;;;;;;5037030;28;21048;-87
2022/11/13 00:59:21;;;;;;;58.67;19.23;;;;;;;;;;5043843;28;20943;-88
2022/11/13 01:01:47;;;;;;;62.87;17.53;;;;;;;;;;5044270;28;21234;-87
2022/11/13 01:04:13;;;;;;;80.10;18.60;;;;;;;;;;5042471;28;20452;-88
2022/11/13 01:06:39;;;;;;;61.70;16.90;;;;;;;;;;5036957;28;20471;-87
2022/11/13 01:09:05;;;;;;;34.40;15.40;;;3.90;99.90;;;;;;5040828;28;20870;-87
2022/11/13 01:11:30;;;;;;;87.95;19.70;;;3.80;99.90;;;;;;5038337;28;20921;-87
2022/11/13 01:13:56;;;;;;;53.17;15.27;;;;;;;;;;5041721;28;20169;-88
2022/11/13 01:16:24;;;;;;;38.92;15.65;;;;;;;;;;5053129;28;20208;-87
2022/11/13 01:18:49;;;;;;;77.70;15.90;;;3.40;99.90;;;;;;5037324;28;20204;-87
2022/11/13 01:21:18;;;;;;;76.13;16.10;;;3.30;99.90;;;;;;5040855;28;20193;-87
2022/11/13 01:23:45;;;;;;;63.40;18.20;;;3.30;99.90;;;;;;5039624;28;20178;-87
2022/11/13 01:26:15;;;;;;;95.35;15.82;;;3.30;99.90;;;;;;5041086;28;20201;-87
2022/11/13 01:28:43;;;;;;;83.35;15.20;;;3.20;99.90;;;;;;5040104;28;20210;-88
2022/11/13 01:31:11;;;;;;;82.63;20.80;;;3.20;99.90;;;;;;5039521;28;20477;-87
2022/11/13 01:33:36;;;;;;;106.50;18.50;;;3.20;99.90;;;;;;5053451;28;20174;-87
2022/11/13 01:36:05;;;;;;;97.63;17.70;;;3.20;99.90;;;;;;5048663;28;20293;-88
2022/11/13 01:38:31;;;;;;;103.10;19.52;;;;;;;;;;5040479;28;20709;-87
2022/11/13 01:40:57;;;;;;;72.83;16.77;;;2.90;99.90;;;;;;5039475;28;20217;-86
2022/11/13 01:43:32;;;;;;;60.27;16.67;;;2.70;99.90;;;;;;5036317;28;20435;-87
2022/11/13 01:45:57;;;;;;;44.05;14.55;;;2.60;99.90;;;;;;5036778;28;20455;-86
2022/11/13 01:48:27;;;;;;;23.07;15.07;;;2.30;99.90;;;;;;5047081;28;20826;-87
2022/11/13 01:50:53;;;;;;;25.33;13.98;;;2.30;99.90;;;;;;5036426;28;20181;-86
2022/11/13 01:53:19;;;;;;;21.00;13.80;;;2.30;99.90;;;;;;5045981;28;20181;-86
2022/11/13 01:55:45;;;;;;;23.13;13.77;;;2.30;99.90;;;;;;5038006;28;20256;-87
2022/11/13 01:58:12;;;;;;;25.10;14.63;;;2.20;99.90;;;;;;5041329;28;20505;-87
2022/11/13 02:00:37;;;;;;;23.60;14.50;;;2.20;99.90;;;;;;5051416;28;20199;-87
2022/11/13 02:03:04;;;;;;;22.50;13.47;;;2.10;99.90;;;;;;5037310;28;21157;-86
2022/11/13 02:05:29;;;;;;;23.30;14.50;;;2.10;99.90;;;;;;5041113;28;20685;-87
2022/11/13 02:07:55;;;;;;;21.50;13.63;;;2.00;99.90;;;;;;5041230;28;20228;-86
2022/11/13 02:10:21;;;;;;;23.80;14.70;;;;;;;;;;5046284;28;20213;-87
2022/11/13 02:12:50;;;;;;;21.37;12.83;;;1.90;99.90;;;;;;5041511;28;20189;-88
2022/11/13 02:15:22;;;;;;;62.63;18.48;;;2.00;99.90;;;;;;5038387;28;20559;-87
2022/11/13 02:17:53;;;;;;;22.20;13.32;;;2.00;99.90;;;;;;5045632;28;20248;-88
2022/11/13 02:20:33;;;;;;;25.02;14.75;;;2.10;99.90;;;;;;5042887;28;20205;-87
2022/11/13 02:23:24;;;;;;;27.50;14.30;;;2.10;99.90;;;;;;5035925;28;20178;-88
2022/11/13 02:25:53;;;;;;;25.40;13.70;;;2.10;99.90;;;;;;5034090;28;20208;-86
2022/11/13 02:28:19;;;;;;;26.25;15.07;;;2.00;99.90;;;;;;5040532;28;20727;-86
2022/11/13 02:30:45;;;;;;;24.20;13.00;;;;;;;;;;5036897;28;20177;-85
2022/11/13 02:33:29;;;;;;;26.45;15.18;;;2.00;99.90;;;;;;5034130;28;20443;-86
2022/11/13 02:35:54;;;;;;;21.88;12.98;;;2.00;99.90;;;;;;5033629;28;20241;-86
2022/11/13 02:38:20;;;;;;;22.60;12.27;;;;;;;;;;5038938;28;20359;-86
2022/11/13 02:40:46;;;;;;;22.70;13.90;;;;;;;;;;5039614;28;23429;-87
2022/11/13 02:43:12;;;;;;;21.97;13.10;;;2.10;99.90;;;;;;5035943;28;22571;-86
2022/11/13 02:45:38;;;;;;;20.40;13.50;;;;;;;;;;5039902;28;20479;-86
2022/11/13 02:48:04;;;;;;;20.07;12.47;;;2.10;99.90;;;;;;5037220;28;20258;-86
2022/11/13 02:50:31;;;;;;;21.13;13.50;;;2.10;99.90;;;;;;5042361;28;20489;-86
2022/11/13 02:52:57;;;;;;;165.75;20.38;;;2.00;99.90;;;;;;5048387;28;20231;-86
2022/11/13 02:55:23;;;;;;;194.97;22.10;;;;;;;;;;5042448;28;20174;-86
2022/11/13 02:57:49;;;;;;;70.13;14.45;;;1.90;99.90;;;;;;5038521;28;20201;-87
2022/11/13 03:00:14;;;;;;;105.60;15.63;;;1.80;99.90;;;;;;5035610;28;20204;-86
2022/11/13 03:02:41;;;;;;;114.83;16.93;;;;;;;;;;5046724;28;22235;-87
2022/11/13 03:05:07;;;;;;;88.50;14.07;;;1.80;99.90;;;;;;5044249;28;20431;-87
2022/11/13 03:07:32;;;;;;;104.70;19.20;;;1.70;99.90;;;;;;5047306;28;20197;-88
2022/11/13 03:09:58;;;;;;;142.57;18.87;;;1.70;99.90;;;;;;5040013;28;20328;-88
2022/11/13 03:12:23;;;;;;;121.80;19.43;;;1.70;99.90;;;;;;5036992;28;20204;-87
2022/11/13 03:14:49;;;;;;;125.87;18.97;;;;;;;;;;5040115;28;20193;-87
2022/11/13 03:17:15;;;;;;;123.33;18.70;;;;;;;;;;5038783;28;20256;-87
2022/11/13 03:19:41;;;;;;;77.83;17.77;;;;;;;;;;5048237;28;20421;-87
2022/11/13 03:22:07;;;;;;;104.30;21.20;;;1.50;99.90;;;;;;5037874;28;21104;-87
2022/11/13 03:24:33;;;;;;;61.47;16.33;;;;;;;;;;5039361;28;23272;-87
2022/11/13 03:26:58;;;;;;;85.60;19.45;;;1.50;99.90;;;;;;5033331;28;20709;-87
2022/11/13 03:29:24;;;;;;;72.07;15.67;;;;;;;;;;5030449;28;20182;-86
2022/11/13 03:31:50;;;;;;;62.50;15.20;;;1.30;99.90;;;;;;5037009;28;20221;-87
2022/11/13 03:34:16;;;;;;;59.67;15.50;;;1.30;99.90;;;;;;5038629;28;20807;-87
2022/11/13 03:36:42;;;;;;;25.93;12.60;;;;;;;;;;5037567;28;20649;-86
2022/11/13 03:39:07;;;;;;;25.45;14.93;;;1.20;99.90;;;;;;5033123;28;20431;-88
2022/11/13 03:41:33;;;;;;;27.73;15.10;;;1.20;99.90;;;;;;5052644;28;20711;-88
2022/11/13 03:43:59;;;;;;;26.47;15.57;;;;;;;;;;5042613;28;20265;-87
2022/11/13 03:46:25;;;;;;;32.17;17.30;;;;;;;;;;5033960;28;20180;-88
2022/11/13 03:48:51;;;;;;;30.30;16.30;;;;;;;;;;5042837;28;20426;-88
2022/11/13 03:51:17;;;;;;;24.40;14.70;;;;;;;;;;5043055;28;20531;-88
2022/11/13 03:53:42;;;;;;;26.47;13.43;;;1.20;99.90;;;;;;5040588;28;20427;-87
2022/11/13 03:56:08;;;;;;;115.77;20.77;;;;;;;;;;5042848;28;20532;-88
2022/11/13 03:58:34;;;;;;;22.90;13.30;;;;;;;;;;5041488;28;20197;-87
2022/11/13 04:01:00;;;;;;;339.40;35.60;;;;;;;;;;5042679;28;20641;-87
2022/11/13 04:03:25;;;;;;;269.13;26.50;;;1.30;99.90;;;;;;5040133;28;20415;-87
2022/11/13 04:05:52;;;;;;;243.13;24.80;;;;;;;;;;5042898;28;20443;-87
2022/11/13 04:08:18;;;;;;;25.42;13.55;;;1.20;99.90;;;;;;5040601;28;20201;-87
2022/11/13 04:10:44;;;;;;;28.90;12.77;;;1.20;99.90;;;;;;5045016;28;20190;-86
2022/11/13 04:13:10;;;;;;;24.27;12.70;;;;;;;;;;5038161;28;20243;-86
2022/11/13 04:15:36;;;;;;;19.40;12.15;;;1.30;99.90;;;;;;5047651;28;20990;-86
2022/11/13 04:18:02;;;;;;;30.87;14.67;;;;;;;;;;5039232;28;20292;-85
2022/11/13 04:20:28;;;;;;;24.98;13.98;;;1.30;99.90;;;;;;5042514;28;20209;-86
2022/11/13 04:22:55;;;;;;;27.20;12.98;;;1.30;99.90;;;;;;5043362;28;20726;-85
2022/11/13 04:25:22;;;;;;;20.30;11.60;;;1.30;99.90;;;;;;5043018;28;20182;-86
2022/11/13 04:27:49;;;;;;;29.48;13.60;;;1.30;99.90;;;;;;5043007;28;20205;-87
2022/11/13 04:30:15;;;;;;;23.70;12.80;;;1.40;99.90;;;;;;5039375;28;20273;-86
2022/11/13 04:32:40;;;;;;;21.60;12.90;;;1.40;99.90;;;;;;5042263;28;20222;-85
2022/11/13 04:35:06;;;;;;;21.73;11.90;;;1.20;99.90;;;;;;5045240;28;20205;-86
2022/11/13 04:37:32;;;;;;;25.67;13.67;;;;;;;;;;5050203;28;20288;-87
2022/11/13 04:39:58;;;;;;;24.50;13.90;;;;;;;;;;5044005;28;20956;-86
2022/11/13 04:45:08;;;;;;;27.17;14.82;;;1.10;99.90;;;;;;5044019;28;20525;-86
2022/11/13 04:47:34;;;;;;;29.17;14.00;;;1.00;99.90;;;;;;5041514;28;20227;-84
2022/11/13 04:50:00;;;;;;;29.90;14.40;;;;;;;;;;5045545;28;20968;-86
2022/11/13 04:52:27;;;;;;;25.30;14.10;;;;;;;;;;5044330;28;20173;-86
2022/11/13 04:54:53;;;;;;;27.52;15.60;;;1.10;99.90;;;;;;5045404;28;20424;-87
2022/11/13 04:57:19;;;;;;;30.60;16.30;;;;;;;;;;5048875;28;20259;-83
2022/11/13 04:59:44;;;;;;;28.45;14.68;;;1.20;99.90;;;;;;5069009;28;20443;-83
2022/11/13 05:02:10;;;;;;;31.23;14.67;;;1.20;99.90;;;;;;5059126;28;20240;-83
2022/11/13 05:04:36;;;;;;;36.47;16.40;;;;;;;;;;5050445;28;20169;-83
2022/11/13 05:07:02;;;;;;;26.07;15.30;;;1.40;99.90;;;;;;5051676;28;20272;-83
2022/11/13 05:09:27;;;;;;;30.13;14.80;;;1.40;99.90;;;;;;5056058;28;20499;-83
2022/11/13 05:11:53;;;;;;;27.10;13.53;;;1.40;99.90;;;;;;5066087;28;20611;-83
2022/11/13 05:14:19;;;;;;;31.73;14.20;;;;;;;;;;5054747;28;20202;-84
2022/11/13 05:16:44;;;;;;;28.00;14.67;;;1.50;99.90;;;;;;5050085;28;20601;-83
2022/11/13 05:19:10;;;;;;;27.77;13.93;;;1.50;99.90;;;;;;5059988;28;20479;-83
2022/11/13 05:21:37;;;;;;;36.13;14.20;;;1.40;99.90;;;;;;5043883;28;20305;-84
2022/11/13 05:24:04;;;;;;;39.33;18.05;;;1.40;99.90;;;;;;5053073;28;20483;-83
2022/11/13 05:26:30;;;;;;;34.22;16.02;;;1.80;99.90;;;;;;5055941;28;20161;-84
2022/11/13 05:28:57;;;;;;;36.65;16.83;;;1.50;99.90;;;;;;5060735;28;20178;-84
2022/11/13 05:31:23;;;;;;;35.38;15.35;;;1.50;99.90;;;;;;5051591;28;20181;-84
2022/11/13 05:33:49;;;;;;;31.27;15.90;;;1.40;99.90;;;;;;5051968;28;20228;-83
2022/11/13 05:36:16;;;;;;;37.43;15.80;;;1.50;99.90;;;;;;5047263;28;20450;-84
2022/11/13 05:38:42;;;;;;;33.53;14.95;;;1.50;99.90;;;;;;5044085;28;20219;-85
2022/11/13 05:41:14;;;;;;;26.73;14.00;;;1.50;99.90;;;;;;5050100;28;20205;-84
2022/11/13 05:43:40;;;;;;;34.55;15.93;;;1.40;99.90;;;;;;5045942;28;20169;-83
2022/11/13 05:46:11;;;;;;;34.60;14.63;;;1.30;99.90;;;;;;5046387;28;20182;-85
2022/11/13 05:48:37;;;;;;;29.27;14.85;;;1.20;99.90;;;;;;5051300;28;20864;-84
2022/11/13 05:51:06;;;;;;;47.45;16.92;;;1.10;99.90;;;;;;5047976;28;20185;-84
2022/11/13 05:53:34;;;;;;;34.15;15.18;;;1.20;99.90;;;;;;5046558;28;20173;-83
2022/11/13 05:56:02;;;;;;;30.63;14.75;;;1.20;99.90;;;;;;5052200;28;20184;-84
2022/11/13 05:58:29;;;;;;;31.45;14.73;;;1.20;99.90;;;;;;5047474;28;20207;-83
2022/11/13 06:01:21;;;;;;;28.20;13.68;;;1.40;99.90;;;;;;5044065;28;20197;-84
2022/11/13 06:03:47;;;;;;;27.55;13.55;;;1.50;99.90;;;;;;5045608;28;20169;-84
2022/11/13 06:06:16;;;;;;;26.70;13.70;;;1.40;99.90;;;;;;5055237;28;20172;-84
2022/11/13 06:08:42;;;;;;;26.23;13.13;;;1.40;99.90;;;;;;5056214;28;20447;-83
2022/11/13 06:11:10;;;;;;;29.25;14.50;;;1.50;99.90;;;;;;5057583;28;20541;-83
2022/11/13 06:13:36;;;;;;;26.48;14.77;;;1.50;99.90;;;;;;5051160;28;20170;-84
2022/11/13 06:16:06;;;;;;;25.08;14.15;;;1.40;99.90;;;;;;5045071;28;20177;-85
2022/11/13 06:21:04;;;;;;;29.50;15.18;;;1.50;99.90;;;;;;5049781;28;20251;-89
2022/11/13 06:23:32;;;;;;;26.20;13.50;;;1.60;99.90;;;;;;5051327;28;20264;-90
2022/11/13 06:26:22;;;;;;;24.63;14.80;;;1.70;99.90;;;;;;5049676;28;20577;-90
2022/11/13 06:28:49;;;;;;;33.33;15.30;;;2.10;99.90;;;;;;5025906;28;20213;-91
2022/11/13 06:31:17;;;;;;;32.15;15.05;;;2.20;99.90;;;;;;5052498;28;20289;-89
2022/11/13 06:33:43;;;;;;;30.80;16.80;;;2.20;99.90;;;;;;5052179;28;20197;-90
2022/11/13 06:36:20;;;;;;;35.00;17.97;;;2.40;99.90;;;;;;5053335;28;20177;-90
2022/11/13 06:38:47;;;;;;;33.50;17.23;;;;;;;;;;5052163;28;20447;-88
2022/11/13 06:41:16;;;;;;;33.30;16.77;;;2.50;99.90;;;;;;5051453;28;20299;-91
2022/11/13 06:43:42;;;;;;;32.63;16.58;;;2.50;99.90;;;;;;5051005;28;20562;-87
2022/11/13 06:46:17;;;;;;;30.23;17.00;;;2.50;99.90;;;;;;5054141;28;20177;-90
2022/11/13 06:48:43;;;;;;;36.33;15.60;;;;;;;;;;5053184;28;20192;-90
2022/11/13 06:51:12;;;;;;;37.72;17.27;;;2.50;99.90;;;;;;5053333;28;20188;-91
2022/11/13 06:53:38;;;;;;;32.13;16.60;;;;;;;;;;5053453;28;20260;-92
2022/11/13 06:56:05;;;;;;;33.63;16.23;;;2.60;99.90;;;;;;5054552;28;20204;-91
2022/11/13 06:58:31;;;;;;;41.08;16.77;;;;;;;;;;5053557;28;20255;-91
2022/11/13 07:01:08;;;;;;;41.10;17.90;;;2.90;99.90;;;;;;5059305;28;20266;-91
2022/11/13 07:03:34;;;;;;;35.92;20.75;;;3.20;99.90;;;;;;5060239;28;20160;-91
2022/11/13 07:06:03;;;;;;;34.40;18.05;;;3.10;99.90;;;;;;5054905;28;20173;-91
2022/11/13 07:08:29;;;;;;;50.17;21.85;;;;;;;;;;5055075;28;20193;-91
2022/11/13 07:10:55;;;;;;;47.00;20.57;;;3.50;99.90;;;;;;5054539;28;20169;-92
2022/11/13 07:13:21;;;;;;;95.25;21.33;;;;;;;;;;5055423;28;20439;-91
2022/11/13 07:16:01;;;;;;;142.27;20.98;;;3.50;99.90;;;;;;5055952;28;20173;-92
2022/11/13 07:18:26;;;;;;;234.18;29.25;;;3.40;99.90;;;;;;5054881;28;20193;-92
2022/11/13 07:20:52;;;;;;;59.70;21.50;;;;;;;;;;5053859;28;20254;-91
2022/11/13 07:23:18;;;;;;;62.17;22.00;;;;;;;;;;5053659;28;20170;-91
2022/11/13 07:25:44;;;;;;;147.70;23.70;;;;;;;;;;5054619;28;20416;-91
2022/11/13 07:28:10;;;;;;;140.80;27.70;;;;;;;;;;5055242;28;20436;-91
2022/11/13 07:30:36;;;;;;;306.63;35.57;;;;;;;;;;5054168;28;20173;-91
2022/11/13 07:33:02;;;;;;;83.32;31.02;;;;;;;;;;5054854;28;20412;-90
2022/11/13 07:35:28;;;;;;;120.00;40.60;;;4.20;99.90;;;;;;5057470;28;20227;-90
2022/11/13 07:37:56;;;;;;;146.47;22.27;;;4.20;99.90;;;;;;5047943;28;20201;-90
2022/11/13 07:40:21;;;;;;;134.75;26.48;;;4.00;99.90;;;;;;5049182;28;20177;-90
2022/11/13 07:42:47;;;;;;;94.23;21.40;;;;;;;;;;5047268;28;20227;-92
2022/11/13 07:45:13;;;;;;;69.60;21.47;;;;;;;;;;5052222;28;20180;-90
2022/11/13 07:47:39;;;;;;;62.77;21.70;;;;;;;;;;5038626;28;20435;-91
2022/11/13 07:50:05;;;;;;;48.13;19.10;;;;;;;;;;5033475;28;20996;-90
2022/11/13 07:52:31;;;;;;;67.00;19.90;;;;;;;;;;5033360;28;20416;-90
2022/11/13 07:54:57;;;;;;;40.80;17.80;;;;;;;;;;5049242;28;20708;-90
2022/11/13 07:57:23;;;;;;;45.17;20.83;;;;;;;;;;5052045;28;20919;-90
2022/11/13 07:59:49;;;;;;;26.30;17.98;;;;;;;;;;5067209;28;20801;-90
2022/11/13 08:02:15;;;;;;;26.80;15.47;;;;;;;;;;5053083;28;20201;-89
2022/11/13 08:04:41;;;;;;;29.38;14.95;;;;;;;;;;5053165;28;20439;-90
2022/11/13 08:07:10;;;;;;;27.03;14.87;;;5.30;99.90;;;;;;5055461;28;20203;-91
2022/11/13 08:09:35;;;;;;;25.70;15.52;;;5.30;99.90;;;;;;5059059;28;20484;-90
2022/11/13 08:12:01;;;;;;;33.30;18.40;;;;;;;;;;5057602;28;20215;-91
2022/11/13 08:14:27;;;;;;;38.63;20.20;;;;;;;;;;5058778;28;20173;-90
2022/11/13 08:16:53;;;;;;;33.20;19.97;;;;;;;;;;5057070;28;20553;-89
2022/11/13 08:19:19;;;;;;;20.90;14.97;;;;;;;;;;5058665;28;20451;-91
2022/11/13 08:21:46;;;;;;;27.15;17.65;;;6.90;99.90;;;;;;5052276;28;20462;-89
2022/11/13 08:24:11;;;;;;;24.50;15.70;;;7.20;99.90;;;;;;5049066;28;20208;-89
2022/11/13 08:26:38;;;;;;;18.10;13.50;;;;;;;;;;5047251;28;20325;-88
2022/11/13 08:29:04;;;;;;;24.25;16.05;;;;;;;;;;5053459;28;20312;-89
2022/11/13 08:31:30;;;;;;;21.38;15.27;;;7.20;99.90;;;;;;5049765;28;20248;-89
2022/11/13 08:33:56;;;;;;;25.45;14.30;;;8.60;99.90;;;;;;5045007;28;20198;-89
2022/11/13 08:36:22;;;;;;;22.77;15.20;;;7.00;99.90;;;;;;5049920;28;20314;-90
2022/11/13 08:38:47;;;;;;;23.27;14.50;;;6.70;99.90;;;;;;5046208;28;20479;-89
2022/11/13 08:41:13;;;;;;;23.47;13.70;;;;;;;;;;5042833;28;20215;-89
2022/11/13 08:43:39;;;;;;;21.38;13.02;;;6.50;99.90;;;;;;5050487;28;20182;-89
2022/11/13 08:46:05;;;;;;;20.97;13.60;;;6.40;99.90;;;;;;5050407;28;20587;-89
2022/11/13 08:48:31;;;;;;;18.50;12.15;;;6.40;99.90;;;;;;5050664;28;20223;-89
2022/11/13 08:50:57;;;;;;;20.37;14.97;;;;;;;;;;5046178;28;20200;-89
2022/11/13 08:53:24;;;;;;;25.67;16.83;;;6.20;99.90;;;;;;5049850;28;20249;-88
2022/11/13 08:55:51;;;;;;;19.00;13.48;;;6.30;99.90;;;;;;5050820;28;20312;-89
2022/11/13 08:58:17;;;;;;;19.92;14.30;;;6.50;99.90;;;;;;5042336;28;20288;-89
2022/11/13 09:00:43;;;;;;;21.20;14.20;;;6.70;99.90;;;;;;5048328;28;21381;-90
2022/11/13 09:03:11;;;;;;;20.73;13.63;;;6.60;99.90;;;;;;5042182;28;20454;-90
2022/11/13 09:05:37;;;;;;;18.73;12.82;;;6.60;99.90;;;;;;5051455;28;20178;-90
2022/11/13 09:08:04;;;;;;;21.65;15.40;;;6.80;99.90;;;;;;5049852;28;20193;-89
2022/11/13 09:10:32;;;;;;;19.63;14.60;;;6.80;99.90;;;;;;5049612;28;20190;-90
2022/11/13 09:13:00;;;;;;;17.27;12.80;;;6.80;99.90;;;;;;5042807;28;20411;-90
2022/11/13 09:15:26;;;;;;;20.23;12.75;;;6.70;99.90;;;;;;5063683;28;20800;-90
2022/11/13 09:17:58;;;;;;;19.05;13.32;;;6.70;99.90;;;;;;5048913;28;20210;-90
2022/11/13 09:20:25;;;;;;;18.50;13.63;;;6.80;99.90;;;;;;5047331;28;20204;-90
2022/11/13 09:23:17;;;;;;;18.67;12.27;;;7.40;99.90;;;;;;5047440;28;20552;-90
2022/11/13 09:25:42;;;;;;;21.90;13.68;;;7.50;99.90;;;;;;5039159;28;20563;-90
2022/11/13 09:28:10;;;;;;;16.43;12.00;;;9.00;99.90;;;;;;5044138;28;20205;-90
2022/11/13 09:30:38;;;;;;;14.05;10.48;;;9.30;99.90;;;;;;5045230;28;20188;-89
2022/11/13 09:33:04;;;;;;;12.07;9.90;;;;;;;;;;5042517;28;20217;-90
2022/11/13 09:35:34;;;;;;;16.53;10.80;;;8.50;99.90;;;;;;5044434;28;20223;-89
2022/11/13 09:38:10;;;;;;;15.40;10.95;;;8.40;99.90;;;;;;5050130;28;20528;-90
2022/11/13 09:41:04;;;;;;;12.48;10.20;;;8.40;99.90;;;;;;5051740;28;20754;-90
2022/11/13 09:43:54;;;;;;;16.17;10.73;;;8.20;99.90;;;;;;5046166;28;20265;-89
2022/11/13 09:46:42;;;;;;;13.05;9.85;;;7.70;99.90;;;;;;5033326;28;20177;-89
2022/11/13 09:49:08;;;;;;;14.52;10.85;;;7.60;99.90;;;;;;5044923;28;20632;-89
2022/11/13 09:51:36;;;;;;;14.97;10.50;;;7.30;99.90;;;;;;5043955;28;20751;-90
2022/11/13 09:54:13;;;;;;;15.73;11.88;;;7.30;99.90;;;;;;5043580;28;20286;-91
2022/11/13 09:56:51;;;;;;;14.77;10.90;;;7.30;99.90;;;;;;5041963;28;20560;-90
2022/11/13 09:59:46;;;;;;;14.55;11.10;;;7.30;99.90;;;;;;5044043;28;20200;-90
2022/11/13 10:02:23;;;;;;;22.40;11.25;;;7.50;99.90;;;;;;5045940;28;20270;-90
2022/11/13 10:05:18;;;;;;;15.40;11.50;;;7.50;99.90;;;;;;5045250;28;20177;-90
2022/11/13 10:07:56;;;;;;;18.23;9.45;;;7.80;99.90;;;;;;5048819;28;20201;-90
2022/11/13 10:10:47;;;;;;;16.88;12.07;;;7.80;99.90;;;;;;5049873;28;20581;-90
2022/11/13 10:13:17;;;;;;;15.80;11.40;;;8.10;99.90;;;;;;5047822;28;20182;-90
2022/11/13 10:15:47;;;;;;;15.98;10.90;;;8.30;99.90;;;;;;5053128;28;20177;-90
2022/11/13 10:18:20;;;;;;;15.13;10.60;;;8.40;99.90;;;;;;5051929;28;20216;-89
2022/11/13 10:20:54;;;;;;;13.32;8.30;;;8.40;99.90;;;;;;5049703;28;20211;-90
2022/11/13 10:23:25;;;;;;;10.45;8.20;;;8.50;99.90;;;;;;5049262;28;20267;-90
2022/11/13 10:25:51;;;;;;;10.90;9.18;;;8.40;99.90;;;;;;5052708;28;20177;-89
2022/11/13 10:28:22;;;;;;;14.32;9.85;;;8.50;99.90;;;;;;5051718;28;20212;-90
2022/11/13 10:30:48;;;;;;;14.90;9.77;;;8.80;99.90;;;;;;5052608;28;20180;-92
2022/11/13 10:33:18;;;;;;;12.82;9.30;;;8.90;99.90;;;;;;5052344;28;20629;-91
2022/11/13 10:35:53;;;;;;;13.13;9.43;;;9.00;99.90;;;;;;5054554;28;20204;-90
2022/11/13 10:38:21;;;;;;;13.07;9.32;;;9.30;99.90;;;;;;5052959;28;20204;-90
2022/11/13 10:40:47;;;;;;;12.93;8.80;;;;;;;;;;5052869;28;20197;-90
2022/11/13 10:43:14;;;;;;;13.85;9.48;;;9.40;99.90;;;;;;5052707;28;20161;-90
2022/11/13 10:45:41;;;;;;;12.68;9.40;;;9.40;99.90;;;;;;5052645;28;20222;-90
2022/11/13 10:48:25;;;;;;;20.10;9.48;;;9.40;99.90;;;;;;5051666;28;20587;-90
2022/11/13 10:51:04;;;;;;;12.50;9.80;;;9.40;99.90;;;;;;5053539;28;20507;-92
2022/11/13 10:53:48;;;;;;;9.30;8.10;;;9.50;99.90;;;;;;5053385;28;20271;-91
2022/11/13 10:56:30;;;;;;;11.10;8.70;;;9.90;99.90;;;;;;5053747;28;20182;-91
2022/11/13 10:59:14;;;;;;;12.50;8.65;;;9.90;99.90;;;;;;5052835;28;20204;-91
2022/11/13 11:01:41;;;;;;;7.70;6.22;;;11.00;99.90;;;;;;5052349;28;20246;-92
2022/11/13 11:04:12;;;;;;;12.45;9.63;;;10.20;99.90;;;;;;5051566;28;20170;-90
2022/11/13 11:06:39;;;;;;;9.95;8.80;;;10.30;99.90;;;;;;5050771;28;20195;-90
2022/11/13 11:09:13;;;;;;;11.85;9.90;;;10.30;99.90;;;;;;5051378;28;20428;-92
2022/11/13 11:14:40;;;;;;;11.18;7.95;;;10.30;99.90;;;;;;5055180;28;20215;-91
2022/11/13 11:17:10;;;;;;;8.50;7.05;;;10.60;99.90;;;;;;5053923;28;20244;-91
2022/11/13 11:19:39;;;;;;;13.63;8.65;;;10.50;99.90;;;;;;5052821;28;20197;-91
2022/11/13 11:22:22;;;;;;;9.15;7.20;;;10.50;99.90;;;;;;5051948;28;20197;-90
2022/11/13 11:25:11;;;;;;;11.65;7.75;;;10.60;99.90;;;;;;5053365;28;20188;-93
2022/11/13 11:27:45;;;;;;;11.73;6.60;;;10.70;99.90;;;;;;5043685;28;20714;-90
2022/11/13 11:30:20;;;;;;;9.85;7.47;;;10.80;99.90;;;;;;5035165;28;20690;-89
2022/11/13 11:33:08;;;;;;;11.10;7.70;;;10.80;99.90;;;;;;5034917;28;20176;-90
2022/11/13 11:35:49;;;;;;;10.05;7.38;;;10.70;99.90;;;;;;5034651;28;20248;-90
2022/11/13 11:38:19;;;;;;;11.55;8.18;;;;;;;;;;5033835;28;20189;-91
2022/11/13 11:40:47;;;;;;;10.00;6.63;;;;;;;;;;5034220;28;20205;-90
2022/11/13 11:43:38;;;;;;;11.93;8.75;;;10.90;99.90;;;;;;5031841;28;20158;-90
2022/11/13 11:46:04;;;;;;;14.07;8.93;;;;;;;;;;5033695;28;20166;-90
2022/11/13 11:48:31;;;;;;;9.40;7.05;;;;;;;;;;5033006;28;20213;-91
2022/11/13 11:51:09;;;;;;;11.48;8.25;;;11.00;99.90;;;;;;5031951;28;20178;-91
2022/11/13 11:53:51;;;;;;;11.77;7.88;;;;;;;;;;5031696;28;20165;-90
2022/11/13 11:56:23;;;;;;;12.30;7.53;;;;;;;;;;5034934;28;20170;-92
2022/11/13 11:58:49;;;;;;;11.65;8.38;;;;;;;;;;5034033;28;20200;-90
2022/11/13 12:01:15;;;;;;;10.43;8.50;;;;;;;;;;5035358;28;20197;-91
2022/11/13 12:04:12;;;;;;;12.30;8.00;;;11.00;99.90;;;;;;5035283;28;20201;-90
2022/11/13 12:06:49;;;;;;;11.48;8.55;;;;;;;;;;5034435;28;20424;-92
2022/11/13 12:09:32;;;;;;;10.95;8.32;;;;;;;;;;5036527;28;20201;-90
2022/11/13 12:12:18;;;;;;;13.10;8.60;;;;;;;;;;5035344;28;20231;-90
2022/11/13 12:14:47;;;;;;;9.45;7.20;;;;;;;;;;5036679;28;20178;-90
2022/11/13 12:17:57;;;;;;;8.52;7.60;;;12.00;99.90;;;;;;5035207;28;20185;-89
2022/11/13 12:23:20;;;;;;;8.40;7.22;;;12.00;99.90;;;;;;5075631;28;20208;-85
2022/11/13 12:26:14;;;;;;;10.95;7.72;;;11.70;99.90;;;;;;5095802;28;20194;-88
2022/11/13 12:28:46;;;;;;;8.70;6.90;;;;;;;;;;5080016;28;20414;-85
2022/11/13 12:31:47;;;;;;;9.35;7.43;;;12.00;99.90;;;;;;5080314;28;20269;-85
2022/11/13 12:34:18;;;;;;;9.40;7.72;;;12.00;99.90;;;;;;5051727;28;20220;-84
2022/11/13 12:36:45;;;;;;;8.68;7.00;;;;;;;;;;5092108;27;20226;-85
2022/11/13 12:39:11;;;;;;;11.57;8.02;;;;;;;;;;5085080;28;20187;-85
2022/11/13 12:41:40;;;;;;;9.93;7.20;;;;;;;;;;5083516;28;20237;-85
2022/11/13 12:44:36;;;;;;;8.73;7.20;;;;;;;;;;5079130;28;20446;-84
2022/11/13 12:47:03;;;;;;;9.15;7.30;;;;;;;;;;5055800;28;20426;-86
2022/11/13 12:49:34;;;;;;;10.53;7.73;;;11.60;99.90;;;;;;5072153;28;20193;-85
2022/11/13 12:52:16;;;;;;;11.45;7.57;;;11.60;99.90;;;;;;5079942;28;20525;-86
2022/11/13 12:54:43;;;;;;;9.60;7.25;;;;;;;;;;5095401;28;20272;-85
2022/11/13 12:57:11;;;;;;;9.27;7.03;;;11.50;99.90;;;;;;5077989;28;20666;-84
2022/11/13 12:59:50;;;;;;;7.50;6.70;;;11.50;99.90;;;;;;5081671;28;20213;-84
2022/11/13 13:02:50;;;;;;;9.77;7.20;;;11.40;99.90;;;;;;5081686;28;20584;-88
2022/11/13 13:05:53;;;;;;;11.27;7.45;;;11.40;99.90;;;;;;5071827;28;20223;-86
2022/11/13 13:08:44;;;;;;;8.70;6.82;;;11.30;99.90;;;;;;5088506;28;20184;-88
2022/11/13 13:11:18;;;;;;;11.38;8.13;;;11.30;99.90;;;;;;5080402;28;20177;-88
2022/11/13 13:14:12;;;;;;;7.63;6.60;;;11.30;99.90;;;;;;5074726;28;20470;-87
2022/11/13 13:16:38;;;;;;;11.10;6.47;;;11.20;99.90;;;;;;5080684;28;20179;-86
2022/11/13 13:19:27;;;;;;;7.00;5.87;;;11.30;99.90;;;;;;5079544;28;20443;-88
2022/11/13 13:21:53;;;;;;;8.15;7.20;;;;;;;;;;5083693;28;20223;-87
2022/11/13 13:24:33;;;;;;;8.43;7.15;;;11.40;99.90;;;;;;5100226;28;20196;-89
2022/11/13 13:26:59;;;;;;;11.35;6.75;;;11.30;99.90;;;;;;5079538;28;20547;-87
2022/11/13 13:29:27;;;;;;;8.10;6.25;;;12.80;99.90;;;;;;5085033;28;20176;-87